Decoded Metar for KPBH (PHILLIPS/PRICE in WI, USA) (IATA:PBH) | Meteo·Mobile Aviation Weather
aviador You're here:

KPBH Decoded Metar

PHILLIPS/PRICE in WI, USA
Report Time2019-04-21 00:35:00
UTC Time2019-04-21 00:40:13
Flight Rules vfr VFR
Wind210° at 04 kt
W.Decomp.*RWY 19: 3.8 kt HW 1.4 kt RCW
RWY 24: 3.5 kt HW 2 kt LCW
Visibility9999 m
Phenomena:N/A
Clouds:Overcast 100 Hf
Expected CloudBase > 6,000 ft AGL from Temp-Dew spread
Ceiling10,000 ft
Temp17°C (ISA +5)
Dew Point02°C (37% RH)
AAT13.9°C
QNH1007 hPa
Density Alt2,356 ft
Elevation1,473 ft
Report Wrong Elevation
Raw Report
KPBH 210035Z AUTO 21004KT 10SM OVC100 17/02 A2974 RMK AO2
T01730023=

Extra information for KPBH:More info

Metar Taf Metar & Taf Last 4 Metars F.Rules Stats Wind Profile Meteogram Temp Stats Airport Information Weather charts Add Link Nearby VenuesMetar ALERT Operation Metar Decoded Social comments

AIRNAV info for KPBH